Wetterdaten: Montag, 06.04.2015
Datum Zeit Temp. A. Feuchte A. Luftdruck Regen Wind Richtung Richtung Sonnenschein ET UV Solar Taupunkt Windchill Windben Empfang
06.04.2015 00:00 0,9 C 79 % 1023,3 hPa 0,0 l/m 0,0 km/h (0 Bft) S 190 0 min 0,000 mm 0,0 UV-I 0 W/m -2,3 C 0,9 C 0,0 km/h (0 Bft) 0,00 %
06.04.2015 00:15 0,8 C 79 % 1023,2 hPa 0,0 l/m 0,0 km/h (0 Bft) S-SW 201 0 min 0,000 mm 0,0 UV-I 0 W/m -2,4 C 0,8 C 0,0 km/h (0 Bft) 0,00 %
06.04.2015 00:30 0,8 C 79 % 1023,3 hPa 0,0 l/m 0,0 km/h (0 Bft) S 176 0 min 0,000 mm 0,0 UV-I 0 W/m -2,4 C 0,8 C 0,0 km/h (0 Bft) 0,00 %
06.04.2015 00:45 0,7 C 79 % 1023,4 hPa 0,0 l/m 0,0 km/h (0 Bft) S 187 0 min 0,000 mm 0,0 UV-I 0 W/m -2,5 C 0,7 C 0,0 km/h (0 Bft) 0,00 %
06.04.2015 01:00 0,7 C 79 % 1023,3 hPa 0,0 l/m 0,0 km/h (0 Bft) S 185 0 min 0,000 mm 0,0 UV-I 0 W/m -2,5 C 0,7 C 0,0 km/h (0 Bft) 0,00 %
06.04.2015 01:15 0,7 C 79 % 1023,3 hPa 0,0 l/m 0,0 km/h (0 Bft) S-SW 206 0 min 0,000 mm 0,0 UV-I 0 W/m -2,5 C 0,7 C 0,0 km/h (0 Bft) 0,00 %
06.04.2015 01:30 0,7 C 79 % 1023,0 hPa 0,0 l/m 0,0 km/h (0 Bft) S-SW 210 0 min 0,000 mm 0,0 UV-I 0 W/m -2,5 C 0,7 C 0,0 km/h (0 Bft) 0,00 %
06.04.2015 01:45 0,6 C 79 % 1023,1 hPa 0,0 l/m 0,0 km/h (0 Bft) S 186 0 min 0,000 mm 0,0 UV-I 0 W/m -2,6 C 0,6 C 0,0 km/h (0 Bft) 0,00 %
06.04.2015 02:00 0,6 C 79 % 1023,0 hPa 0,0 l/m 0,0 km/h (0 Bft) S-SW 197 0 min 0,000 mm 0,0 UV-I 0 W/m -2,6 C 0,6 C 0,0 km/h (0 Bft) 0,00 %
06.04.2015 02:15 0,5 C 79 % 1023,0 hPa 0,0 l/m 0,0 km/h (0 Bft) S 173 0 min 0,000 mm 0,0 UV-I 0 W/m -2,7 C 0,5 C 0,0 km/h (0 Bft) 0,00 %
06.04.2015 02:30 0,5 C 79 % 1022,9 hPa 0,0 l/m 0,0 km/h (0 Bft) S 188 0 min 0,000 mm 0,0 UV-I 0 W/m -2,7 C 0,5 C 0,0 km/h (0 Bft) 0,00 %
06.04.2015 02:45 0,5 C 79 % 1022,8 hPa 0,0 l/m 1,4 km/h (1 Bft) SW 231 0 min 0,000 mm 0,0 UV-I 0 W/m -2,7 C 0,5 C 4,0 km/h (1 Bft) 0,00 %
06.04.2015 03:00 0,6 C 79 % 1023,1 hPa 0,0 l/m 0,0 km/h (0 Bft) O-SO 110 0 min 0,000 mm 0,0 UV-I 0 W/m -2,6 C 0,6 C 0,0 km/h (0 Bft) 0,00 %
06.04.2015 03:15 0,6 C 79 % 1022,8 hPa 0,0 l/m 0,0 km/h (0 Bft) SW 229 0 min 0,000 mm 0,0 UV-I 0 W/m -2,6 C 0,6 C 0,0 km/h (0 Bft) 0,00 %
06.04.2015 03:30 0,7 C 79 % 1022,8 hPa 0,0 l/m 0,0 km/h (0 Bft) S 173 0 min 0,000 mm 0,0 UV-I 0 W/m -2,5 C 0,7 C 0,0 km/h (0 Bft) 0,00 %
06.04.2015 03:45 0,8 C 79 % 1022,8 hPa 0,0 l/m 0,0 km/h (0 Bft) S-SW 206 0 min 0,000 mm 0,0 UV-I 0 W/m -2,4 C 0,8 C 0,0 km/h (0 Bft) 0,00 %
06.04.2015 04:00 0,7 C 79 % 1022,7 hPa 0,0 l/m 0,0 km/h (0 Bft) S-SW 194 0 min 0,000 mm 0,0 UV-I 0 W/m -2,5 C 0,7 C 0,0 km/h (0 Bft) 0,00 %
06.04.2015 04:15 0,6 C 78 % 1022,7 hPa 0,0 l/m 0,0 km/h (0 Bft) S-SW 203 0 min 0,000 mm 0,0 UV-I 0 W/m -2,8 C 0,6 C 0,0 km/h (0 Bft) 0,00 %
06.04.2015 04:30 0,5 C 78 % 1022,6 hPa 0,0 l/m 0,0 km/h (0 Bft) S-SW 202 0 min 0,000 mm 0,0 UV-I 0 W/m -2,9 C 0,5 C 0,0 km/h (0 Bft) 0,00 %
06.04.2015 04:45 0,5 C 78 % 1022,4 hPa 0,0 l/m 0,0 km/h (0 Bft) S-SW 208 0 min 0,000 mm 0,0 UV-I 0 W/m -2,9 C 0,5 C 0,0 km/h (0 Bft) 0,00 %
06.04.2015 05:00 0,5 C 78 % 1022,4 hPa 0,0 l/m 0,0 km/h (0 Bft) N-NW 329 0 min 0,000 mm 0,0 UV-I 0 W/m -2,9 C 0,5 C 0,0 km/h (0 Bft) 0,00 %
06.04.2015 05:15 0,5 C 78 % 1022,6 hPa 0,0 l/m 0,0 km/h (0 Bft) S-SW 203 0 min 0,000 mm 0,0 UV-I 0 W/m -2,9 C 0,5 C 0,0 km/h (0 Bft) 0,00 %
06.04.2015 05:30 0,5 C 78 % 1022,6 hPa 0,0 l/m 0,7 km/h (0 Bft) W 263 0 min 0,000 mm 0,0 UV-I 0 W/m -2,9 C 0,5 C 4,0 km/h (1 Bft) 0,00 %
06.04.2015 05:45 0,5 C 77 % 1022,7 hPa 0,0 l/m 0,0 km/h (0 Bft) S-SW 205 0 min 0,000 mm 0,0 UV-I 0 W/m -3,1 C 0,5 C 0,0 km/h (0 Bft) 0,00 %
06.04.2015 06:00 0,6 C 77 % 1022,8 hPa 0,0 l/m 0,0 km/h (0 Bft) S-SW 211 0 min 0,000 mm 0,0 UV-I 0 W/m -3,0 C 0,6 C 0,0 km/h (0 Bft) 0,00 %
06.04.2015 06:15 0,5 C 77 % 1022,7 hPa 0,0 l/m 0,4 km/h (0 Bft) W-SW 237 0 min 0,000 mm 0,0 UV-I 0 W/m -3,1 C 0,5 C 4,0 km/h (1 Bft) 0,00 %
06.04.2015 06:30 0,6 C 76 % 1022,8 hPa 0,0 l/m 2,9 km/h (1 Bft) W-SW 252 0 min 0,000 mm 0,0 UV-I 0 W/m -3,1 C 0,6 C 4,0 km/h (1 Bft) 0,00 %
06.04.2015 06:45 0,6 C 76 % 1023,2 hPa 0,0 l/m 0,0 km/h (0 Bft) S 187 0 min 0,000 mm 0,0 UV-I 0 W/m -3,1 C 0,6 C 0,0 km/h (0 Bft) 0,00 %
06.04.2015 07:00 0,7 C 76 % 1023,4 hPa 0,0 l/m 0,0 km/h (0 Bft) S-SW 208 0 min 0,000 mm 0,0 UV-I 0 W/m -3,0 C 0,7 C 0,0 km/h (0 Bft) 0,00 %
06.04.2015 07:15 0,8 C 76 % 1023,2 hPa 0,0 l/m 0,0 km/h (0 Bft) S-SW 193 0 min 0,000 mm 0,0 UV-I 0 W/m -2,9 C 0,8 C 0,0 km/h (0 Bft) 0,00 %
06.04.2015 07:30 1,0 C 76 % 1023,6 hPa 0,0 l/m 0,0 km/h (0 Bft) S 173 0 min 0,000 mm 1,0 UV-I 33 W/m -2,7 C 1,0 C 0,0 km/h (0 Bft) 0,00 %
06.04.2015 07:45 1,9 C 73 % 1023,3 hPa 0,0 l/m 0,0 km/h (0 Bft) S 174 0 min 0,000 mm 1,0 UV-I 94 W/m -2,4 C 1,9 C 0,0 km/h (0 Bft) 0,00 %
06.04.2015 08:00 2,8 C 73 % 1023,1 hPa 0,0 l/m 0,0 km/h (0 Bft) W-SW 240 0 min 0,000 mm 1,0 UV-I 128 W/m -1,5 C 2,8 C 0,0 km/h (0 Bft) 0,00 %
06.04.2015 08:15 2,4 C 68 % 1023,3 hPa 0,0 l/m 0,7 km/h (0 Bft) SW 216 0 min 0,000 mm 0,0 UV-I 96 W/m -2,9 C 2,4 C 4,0 km/h (1 Bft) 0,00 %
06.04.2015 08:30 1,9 C 69 % 1023,4 hPa 0,0 l/m 0,4 km/h (0 Bft) N-NW 337 0 min 0,000 mm 1,0 UV-I 38 W/m -3,2 C 1,9 C 4,0 km/h (1 Bft) 0,00 %
06.04.2015 08:45 2,7 C 72 % 1023,3 hPa 0,0 l/m 0,4 km/h (0 Bft) S 176 0 min 0,000 mm 2,0 UV-I 117 W/m -1,8 C 2,7 C 4,0 km/h (1 Bft) 0,00 %
06.04.2015 09:00 4,3 C 64 % 1022,7 hPa 0,0 l/m 0,0 km/h (0 Bft) SW 222 0 min 0,000 mm 2,0 UV-I 157 W/m -1,9 C 4,3 C 0,0 km/h (0 Bft) 0,00 %
06.04.2015 09:15 5,3 C 60 % 1022,8 hPa 0,0 l/m 3,2 km/h (1 Bft) SW 226 0 min 0,000 mm 2,0 UV-I 187 W/m -1,8 C 5,3 C 4,0 km/h (1 Bft) 0,00 %
06.04.2015 09:30 5,2 C 58 % 1022,7 hPa 0,0 l/m 0,0 km/h (0 Bft) O-SO 106 0 min 0,000 mm 2,0 UV-I 207 W/m -2,4 C 5,2 C 0,0 km/h (0 Bft) 0,00 %
06.04.2015 09:45 5,2 C 59 % 1023,1 hPa 0,0 l/m 0,4 km/h (0 Bft) S-SW 193 0 min 0,000 mm 3,0 UV-I 176 W/m -2,1 C 5,2 C 4,0 km/h (1 Bft) 0,00 %
06.04.2015 10:00 5,7 C 54 % 1022,8 hPa 0,0 l/m 1,8 km/h (1 Bft) SW 219 0 min 0,000 mm 3,0 UV-I 276 W/m -2,9 C 5,7 C 4,0 km/h (1 Bft) 0,00 %
06.04.2015 10:15 6,5 C 53 % 1022,6 hPa 0,0 l/m 2,9 km/h (1 Bft) NW 309 0 min 0,000 mm 3,0 UV-I 310 W/m -2,4 C 6,5 C 7,9 km/h (2 Bft) 0,00 %
06.04.2015 10:30 6,8 C 51 % 1022,3 hPa 0,0 l/m 4,3 km/h (1 Bft) W-NW 303 15 min 0,000 mm 4,0 UV-I 335 W/m -2,6 C 6,8 C 7,9 km/h (2 Bft) 0,00 %
06.04.2015 10:45 7,1 C 48 % 1022,4 hPa 0,0 l/m 0,4 km/h (0 Bft) NW 318 15 min 0,000 mm 3,0 UV-I 373 W/m -3,2 C 7,1 C 4,0 km/h (1 Bft) 0,00 %
06.04.2015 11:00 7,6 C 49 % 1022,1 hPa 0,0 l/m 6,8 km/h (2 Bft) W-SW 255 15 min 0,000 mm 2,0 UV-I 443 W/m -2,4 C 7,3 C 11,9 km/h (2 Bft) 0,00 %
06.04.2015 11:15 5,9 C 48 % 1022,3 hPa 0,0 l/m 1,4 km/h (1 Bft) W-NW 303 0 min 0,000 mm 1,0 UV-I 170 W/m -4,3 C 5,9 C 4,0 km/h (1 Bft) 0,00 %
06.04.2015 11:30 4,8 C 51 % 1023,3 hPa 0,0 l/m 3,2 km/h (1 Bft) W-SW 255 0 min 0,000 mm 0,0 UV-I 154 W/m -4,5 C 4,8 C 4,0 km/h (1 Bft) 0,00 %
06.04.2015 11:45 3,5 C 51 % 1022,7 hPa 0,0 l/m 0,0 km/h (0 Bft) W-SW 252 0 min 0,000 mm 3,0 UV-I 32 W/m -5,7 C 3,5 C 0,0 km/h (0 Bft) 0,00 %
06.04.2015 12:00 6,2 C 44 % 1022,2 hPa 0,0 l/m 0,0 km/h (0 Bft) SO 128 0 min 0,000 mm 5,0 UV-I 348 W/m -5,1 C 6,2 C 0,0 km/h (0 Bft) 0,00 %
06.04.2015 12:15 7,9 C 40 % 1021,7 hPa 0,0 l/m 0,7 km/h (0 Bft) S-SW 206 15 min 0,000 mm 4,0 UV-I 683 W/m -4,8 C 7,9 C 4,0 km/h (1 Bft) 0,00 %
06.04.2015 12:30 6,5 C 44 % 1022,1 hPa 0,0 l/m 0,0 km/h (0 Bft) W-SW 254 15 min 0,000 mm 0,0 UV-I 442 W/m -4,9 C 6,5 C 0,0 km/h (0 Bft) 0,00 %
06.04.2015 12:45 2,6 C 69 % 1023,5 hPa 0,0 l/m 9,7 km/h (2 Bft) W 261 0 min 0,000 mm 0,0 UV-I 37 W/m -2,5 C -0,3 C 15,8 km/h (3 Bft) 0,00 %
06.04.2015 13:00 0,7 C 79 % 1024,2 hPa 0,0 l/m 2,9 km/h (1 Bft) SW 221 0 min 0,000 mm 0,0 UV-I 32 W/m -2,5 C 0,7 C 4,0 km/h (1 Bft) 0,00 %
06.04.2015 13:15 0,6 C 81 % 1024,1 hPa 0,0 l/m 0,0 km/h (0 Bft) SW 233 0 min 0,000 mm 3,0 UV-I 36 W/m -2,3 C 0,6 C 0,0 km/h (0 Bft) 0,00 %
06.04.2015 13:30 1,8 C 81 % 1023,7 hPa 0,0 l/m 3,2 km/h (1 Bft) W-SW 255 0 min 0,000 mm 3,0 UV-I 203 W/m -1,1 C 1,8 C 4,0 km/h (1 Bft) 0,00 %
06.04.2015 13:45 3,0 C 83 % 1023,1 hPa 0,6 l/m 1,4 km/h (1 Bft) W-SW 256 0 min 0,000 mm 4,0 UV-I 222 W/m 0,4 C 3,0 C 4,0 km/h (1 Bft) 0,00 %
06.04.2015 14:00 4,7 C 78 % 1022,0 hPa 0,0 l/m 4,0 km/h (1 Bft) SW 228 15 min 0,000 mm 4,0 UV-I 652 W/m 1,2 C 4,7 C 7,9 km/h (2 Bft) 0,00 %
06.04.2015 14:15 4,3 C 75 % 1023,2 hPa 0,0 l/m 4,0 km/h (1 Bft) W-SW 256 15 min 0,000 mm 1,0 UV-I 418 W/m 0,3 C 4,3 C 7,9 km/h (2 Bft) 0,00 %
06.04.2015 14:30 2,7 C 82 % 1022,5 hPa 0,0 l/m 0,0 km/h (0 Bft) SW 228 0 min 0,000 mm 2,0 UV-I 138 W/m -0,1 C 2,7 C 0,0 km/h (0 Bft) 0,00 %
06.04.2015 14:45 2,6 C 77 % 1022,2 hPa 0,0 l/m 0,0 km/h (0 Bft) O-SO 119 0 min 0,000 mm 2,0 UV-I 271 W/m -1,0 C 2,6 C 0,0 km/h (0 Bft) 0,00 %
06.04.2015 15:00 2,9 C 74 % 1022,2 hPa 0,0 l/m 0,0 km/h (0 Bft) S-SW 208 0 min 0,000 mm 3,0 UV-I 203 W/m -1,3 C 2,9 C 0,0 km/h (0 Bft) 0,00 %
06.04.2015 15:15 4,4 C 71 % 1022,1 hPa 0,0 l/m 0,0 km/h (0 Bft) S 186 0 min 0,000 mm 3,0 UV-I 277 W/m -0,4 C 4,4 C 0,0 km/h (0 Bft) 0,00 %
06.04.2015 15:30 4,6 C 71 % 1021,8 hPa 0,0 l/m 4,7 km/h (1 Bft) W-SW 246 0 min 0,000 mm 3,0 UV-I 305 W/m -0,2 C 4,6 C 7,9 km/h (2 Bft) 0,00 %
06.04.2015 15:45 4,7 C 64 % 1021,9 hPa 0,0 l/m 2,9 km/h (1 Bft) W-SW 251 0 min 0,000 mm 2,0 UV-I 283 W/m -1,5 C 4,7 C 7,9 km/h (2 Bft) 0,00 %
06.04.2015 16:00 4,9 C 62 % 1021,4 hPa 0,0 l/m 8,3 km/h (2 Bft) W-NW 301 0 min 0,000 mm 2,0 UV-I 235 W/m -1,8 C 3,3 C 11,9 km/h (2 Bft) 0,00 %
06.04.2015 16:15 4,9 C 63 % 1021,9 hPa 0,0 l/m 5,4 km/h (1 Bft) W 266 0 min 0,000 mm 1,0 UV-I 210 W/m -1,5 C 4,9 C 7,9 km/h (2 Bft) 0,00 %
06.04.2015 16:30 3,9 C 70 % 1022,9 hPa 0,0 l/m 5,8 km/h (2 Bft) SW 216 0 min 0,000 mm 0,0 UV-I 48 W/m -1,1 C 3,9 C 7,9 km/h (2 Bft) 0,00 %
06.04.2015 16:45 2,2 C 71 % 1023,7 hPa 0,0 l/m 0,0 km/h (0 Bft) S-SW 203 0 min 0,000 mm 1,0 UV-I 12 W/m -2,5 C 2,2 C 0,0 km/h (0 Bft) 0,00 %
06.04.2015 17:00 1,3 C 74 % 1023,6 hPa 0,0 l/m 0,7 km/h (0 Bft) SW 226 0 min 0,000 mm 1,0 UV-I 44 W/m -2,8 C 1,3 C 4,0 km/h (1 Bft) 0,00 %
06.04.2015 17:15 1,5 C 76 % 1023,5 hPa 0,0 l/m 3,2 km/h (1 Bft) W-SW 255 0 min 0,000 mm 1,0 UV-I 75 W/m -2,3 C 1,5 C 4,0 km/h (1 Bft) 0,00 %
06.04.2015 17:30 1,9 C 75 % 1023,5 hPa 0,0 l/m 1,4 km/h (1 Bft) W-SW 253 0 min 0,000 mm 1,0 UV-I 137 W/m -2,1 C 1,9 C 4,0 km/h (1 Bft) 0,00 %
06.04.2015 17:45 2,4 C 76 % 1023,2 hPa 0,3 l/m 5,4 km/h (1 Bft) SW 223 0 min 0,000 mm 1,0 UV-I 149 W/m -1,4 C 2,4 C 7,9 km/h (2 Bft) 0,00 %
06.04.2015 18:00 3,4 C 73 % 1023,9 hPa 0,0 l/m 0,0 km/h (0 Bft) S-SW 199 15 min 0,000 mm 1,0 UV-I 437 W/m -1,0 C 3,4 C 0,0 km/h (0 Bft) 0,00 %
06.04.2015 18:15 3,0 C 74 % 1024,3 hPa 0,3 l/m 2,9 km/h (1 Bft) S-SW 195 15 min 0,000 mm 1,0 UV-I 273 W/m -1,2 C 3,0 C 7,9 km/h (2 Bft) 0,00 %
06.04.2015 18:30 3,8 C 71 % 1024,6 hPa 0,0 l/m 0,0 km/h (0 Bft) S-SW 197 15 min 0,000 mm 1,0 UV-I 275 W/m -1,0 C 3,8 C 0,0 km/h (0 Bft) 0,00 %
06.04.2015 18:45 4,0 C 66 % 1025,0 hPa 0,0 l/m 0,4 km/h (0 Bft) S-SW 198 15 min 0,000 mm 0,0 UV-I 241 W/m -1,8 C 4,0 C 4,0 km/h (1 Bft) 0,00 %
06.04.2015 19:00 3,5 C 70 % 1025,6 hPa 0,0 l/m 0,0 km/h (0 Bft) S 181 15 min 0,000 mm 0,0 UV-I 158 W/m -1,4 C 3,5 C 0,0 km/h (0 Bft) 0,00 %
06.04.2015 19:15 2,4 C 68 % 1026,6 hPa 0,0 l/m 5,4 km/h (1 Bft) W 262 0 min 0,000 mm 0,0 UV-I 7 W/m -2,9 C 2,4 C 7,9 km/h (2 Bft) 0,00 %
06.04.2015 19:30 1,0 C 72 % 1027,0 hPa 0,0 l/m 11,9 km/h (2 Bft) NO 51 0 min 0,000 mm 0,0 UV-I 0 W/m -3,5 C -3,8 C 15,8 km/h (3 Bft) 0,00 %
06.04.2015 19:45 0,5 C 79 % 1027,3 hPa 0,0 l/m 1,8 km/h (1 Bft) NO 35 0 min 0,000 mm 0,0 UV-I 0 W/m -2,7 C 0,5 C 4,0 km/h (1 Bft) 0,00 %
06.04.2015 20:00 0,5 C 80 % 1027,7 hPa 0,0 l/m 0,0 km/h (0 Bft) S 175 0 min 0,000 mm 0,0 UV-I 0 W/m -2,5 C 0,5 C 0,0 km/h (0 Bft) 0,00 %
06.04.2015 20:15 0,4 C 80 % 1028,0 hPa 0,0 l/m 0,0 km/h (0 Bft) NO 52 0 min 0,000 mm 0,0 UV-I 0 W/m -2,6 C 0,4 C 0,0 km/h (0 Bft) 0,00 %
06.04.2015 20:30 0,5 C 80 % 1028,3 hPa 0,0 l/m 0,0 km/h (0 Bft) SW 220 0 min 0,000 mm 0,0 UV-I 0 W/m -2,5 C 0,5 C 0,0 km/h (0 Bft) 0,00 %
06.04.2015 20:45 0,5 C 81 % 1028,4 hPa 0,0 l/m 0,0 km/h (0 Bft) S 173 0 min 0,000 mm 0,0 UV-I 0 W/m -2,4 C 0,5 C 0,0 km/h (0 Bft) 0,00 %
06.04.2015 21:00 0,5 C 81 % 1028,8 hPa 0,0 l/m 0,0 km/h (0 Bft) S 173 0 min 0,000 mm 0,0 UV-I 0 W/m -2,4 C 0,5 C 0,0 km/h (0 Bft) 0,00 %
06.04.2015 21:15 0,5 C 81 % 1029,0 hPa 0,0 l/m 0,0 km/h (0 Bft) S 174 0 min 0,000 mm 0,0 UV-I 0 W/m -2,4 C 0,5 C 0,0 km/h (0 Bft) 0,00 %
06.04.2015 21:30 0,4 C 81 % 1028,9 hPa 0,0 l/m 0,0 km/h (0 Bft) S-SW 210 0 min 0,000 mm 0,0 UV-I 0 W/m -2,5 C 0,4 C 0,0 km/h (0 Bft) 0,00 %
06.04.2015 21:45 0,4 C 80 % 1029,2 hPa 0,0 l/m 0,0 km/h (0 Bft) W-SW 256 0 min 0,000 mm 0,0 UV-I 0 W/m -2,6 C 0,4 C 0,0 km/h (0 Bft) 0,00 %
06.04.2015 22:00 0,6 C 79 % 1029,6 hPa 0,0 l/m 0,0 km/h (0 Bft) SO 139 0 min 0,000 mm 0,0 UV-I 0 W/m -2,6 C 0,6 C 0,0 km/h (0 Bft) 0,00 %
06.04.2015 22:15 0,7 C 76 % 1029,8 hPa 0,0 l/m 0,0 km/h (0 Bft) SW 220 0 min 0,000 mm 0,0 UV-I 0 W/m -3,0 C 0,7 C 0,0 km/h (0 Bft) 0,00 %
06.04.2015 22:30 0,7 C 76 % 1030,1 hPa 0,0 l/m 0,0 km/h (0 Bft) S-SW 213 0 min 0,000 mm 0,0 UV-I 0 W/m -3,0 C 0,7 C 0,0 km/h (0 Bft) 0,00 %
06.04.2015 22:45 0,9 C 74 % 1030,2 hPa 0,0 l/m 0,0 km/h (0 Bft) SW 228 0 min 0,000 mm 0,0 UV-I 0 W/m -3,2 C 0,9 C 0,0 km/h (0 Bft) 0,00 %
06.04.2015 23:00 1,0 C 71 % 1030,2 hPa 0,0 l/m 0,0 km/h (0 Bft) SW 223 0 min 0,000 mm 0,0 UV-I 0 W/m -3,7 C 1,0 C 0,0 km/h (0 Bft) 0,00 %
06.04.2015 23:15 1,1 C 69 % 1030,4 hPa 0,0 l/m 0,0 km/h (0 Bft) W-SW 253 0 min 0,000 mm 0,0 UV-I 0 W/m -3,9 C 1,1 C 0,0 km/h (0 Bft) 0,00 %
06.04.2015 23:30 1,2 C 69 % 1030,8 hPa 0,0 l/m 0,0 km/h (0 Bft) W-SW 252 0 min 0,000 mm 0,0 UV-I 0 W/m -3,8 C 1,2 C 0,0 km/h (0 Bft) 0,00 %
06.04.2015 23:45 1,1 C 70 % 1030,9 hPa 0,0 l/m 0,0 km/h (0 Bft) SW 225 0 min 0,000 mm 0,0 UV-I 0 W/m -3,7 C 1,1 C 0,0 km/h (0 Bft) 0,00 %
_ Min-Zeit 20:15 12:15 16:00 - 00:00 - - - - - - 11:45 19:30 00:00 00:00
Minimum _ 0,4 C 40 % 1021,4 hPa - 0,0 km/h (0 Bft) - - - - - - -5,7 C -3,8 C 0,0 km/h (0 Bft) 0,00 %
_ Max-Zeit 12:15 13:45 23:45 13:45 19:30 - - 10:30 00:00 12:00 12:15 14:00 12:15 12:45 00:00
Maximum _ 7,9 C 83 % 1030,9 hPa 0,6 l/m 11,9 km/h
NO (2 Bft)
- - 15 min 0,000 mm 5,0 UV-I 683 W/m 1,2 C 7,9 C 15,8 km/h
W (3 Bft)
0,00 %
Durchschnitt _ 2,3 C 72 % 1024,2 hPa #1,2 l/m 1,2 km/h (1 Bft) W-SW - #3:00 h #0,000 mm 2,2 UV-I 212 W/m -2,5 C 2,2 C 2,4 km/h (1 Bft) 0,00 %